Emerald Isle, NC (28594)

8:22 AM EDT on May 23, 2017 (GMT -0400)
Oceanfront | | Change Station

Elev 7 ft 34.67 °N, 76.98 °W | Updated 14 minutes ago

Rain
Rain
71.7 °F
Feels Like 71.7 °F
N
23.0
Wind Variable Wind from SSW

Today
High -- | Low -- °F
--% Chance of Precip.
Yesterday
High -- | Low -- °F
Precip. -- in
Pressure 29.90 in
Visibility 6.0 miles
Clouds Scattered Clouds 1000 ft
Scattered Clouds 4500 ft
Overcast 11000 ft
Dew Point 70 °F
Humidity 93%
Rainfall 0.11 in
Snow Depth Not available.
5:59 AM 8:09 PM
Waning Crescent, 8% visible
METAR KNJM 231157Z AUTO 20010KT 6SM -RA BR SCT010 SCT045 OVC110 23/22 A2988 RMK AO2 SLP123 P0005 60009 70009 T02280217 10233 20217 58002 $
Pressure 29.90 in
Visibility 6.0 miles
Clouds Scattered Clouds 1000 ft
Scattered Clouds 4500 ft
Overcast 11000 ft
Dew Point 70 °F
Humidity 93%
Rainfall 0.11 in
Snow Depth Not available.
5:59 AM 8:09 PM
Waning Crescent, 8% visible
METAR KNJM 231157Z AUTO 20010KT 6SM -RA BR SCT010 SCT045 OVC110 23/22 A2988 RMK AO2 SLP123 P0005 60009 70009 T02280217 10233 20217 58002 $

Get Severe Weather Alerts

Thanks for signing up!

Be on the lookout for a verification email in your inbox.

You'll start receiving the daily forecast at 6 AM.

×

10-Day Weather Forecast

Almanac

Astronomy

May. 23, 2017 Rise Set
Actual Time
Civil Twilight
Nautical Twilight
Astronomical Twilight
Moon
Length of Visible Light
Length of Day
Tomorrow will be .
, % of the Moon is Illuminated

Today's Extremes

State Highs State Lows

Community

WunderPhotos

Category 6

Welcome to Category 6. This is the collective home for Weather Underground's featured writeups by Dr. Jeff Masters (right), Bob Henson (left), Chris Burt, and other regular contributors.

Nearby

Air Quality

  Air Quality AQ Index Pollutant
Not available.

Snow Depth

Station Depth Elevation

Earthquake Activity

City Distance Mag. Time & Date
Minimum magnitude displayed is 2.5.

Coastal Water Temperatures

Place Temperature

Stations

Nearby Weather Stations

Station Location Temp. Windchill Dew Point Humidity Wind Precip. Elev Updated Type
                   

Watches & Warnings

There are currently no watches in effect.